Time;durP1;ratioP1;P1;durP2;ratioP2;P2;SDS_P1;SDS_P2;PMS_P1;PMS_P2;Temp;Humidity;BMP_temperature;BMP_pressure;BME280_temperature;BME280_humidity;BME280_pressure;Samples;Min_cycle;Max_cycle;Signal;HPM_P1;HPM_P2
2021/12/18 00:02:11;;;;;;;55.77;29.40;;;8.40;84.50;;;;;;5081766;28;20189;-77
2021/12/18 00:04:40;;;;;;;64.70;28.57;;;8.30;84.50;;;;;;5085282;28;20573;-77
2021/12/18 00:07:09;;;;;;;65.80;30.13;;;8.30;84.50;;;;;;5081713;28;20204;-77
2021/12/18 00:09:37;;;;;;;53.47;27.93;;;8.30;84.50;;;;;;5081795;28;20190;-77
2021/12/18 00:12:07;;;;;;;62.37;29.33;;;8.20;84.60;;;;;;5084241;28;20204;-77
2021/12/18 00:14:35;;;;;;;58.37;26.90;;;8.20;84.50;;;;;;5083805;28;20947;-77
2021/12/18 00:17:04;;;;;;;61.23;27.43;;;8.20;84.60;;;;;;5081746;28;20196;-77
2021/12/18 00:19:34;;;;;;;54.23;26.93;;;8.20;84.70;;;;;;5080367;28;20215;-77
2021/12/18 00:22:03;;;;;;;48.13;24.23;;;8.20;84.70;;;;;;5080798;28;20209;-77
2021/12/18 00:24:31;;;;;;;55.57;25.03;;;8.20;84.70;;;;;;5083087;28;20189;-77
2021/12/18 00:27:00;;;;;;;48.80;24.47;;;8.10;84.60;;;;;;5079354;28;20212;-77
2021/12/18 00:29:28;;;;;;;49.30;23.90;;;8.10;84.60;;;;;;5080885;28;20196;-77
2021/12/18 00:31:57;;;;;;;46.30;22.90;;;8.10;84.60;;;;;;5080429;28;20291;-77
2021/12/18 00:34:25;;;;;;;51.57;23.40;;;8.10;84.70;;;;;;5080265;28;20193;-77
2021/12/18 00:36:55;;;;;;;62.20;24.93;;;8.10;84.70;;;;;;5078018;28;20212;-78
2021/12/18 00:39:23;;;;;;;57.77;25.13;;;8.00;84.70;;;;;;5082520;28;20246;-77
2021/12/18 00:42:08;;;;;;;47.97;23.93;;;8.00;84.70;;;;;;5083965;28;20189;-78
2021/12/18 00:44:36;;;;;;;50.67;23.77;;;8.00;84.90;;;;;;5084040;28;20195;-77
2021/12/18 00:47:05;;;;;;;50.20;23.70;;;8.00;84.90;;;;;;5081506;28;20197;-77
2021/12/18 00:49:33;;;;;;;50.53;23.67;;;8.00;84.90;;;;;;5083866;28;20629;-77
2021/12/18 00:52:04;;;;;;;49.37;23.00;;;8.00;85.80;;;;;;5082261;28;20197;-77
2021/12/18 00:54:34;;;;;;;52.53;28.35;;;8.10;85.10;;;;;;5080736;28;20441;-77
2021/12/18 00:57:02;;;;;;;54.80;25.20;;;8.10;85.40;;;;;;5080078;28;20186;-77
2021/12/18 00:59:32;;;;;;;54.03;23.80;;;8.10;85.40;;;;;;5078579;28;20251;-76
2021/12/18 01:02:00;;;;;;;45.60;22.67;;;8.10;85.40;;;;;;5078691;28;20222;-78
2021/12/18 01:04:29;;;;;;;50.50;25.30;;;8.10;85.30;;;;;;5080091;28;20437;-77
2021/12/18 01:06:58;;;;;;;52.13;24.17;;;8.20;85.40;;;;;;5078525;28;20852;-77
2021/12/18 01:09:43;;;;;;;47.37;22.10;;;8.20;85.30;;;;;;5083603;28;20205;-77
2021/12/18 01:12:11;;;;;;;57.60;24.43;;;8.20;85.20;;;;;;5074515;28;20583;-77
2021/12/18 01:14:56;;;;;;;50.27;23.07;;;8.20;85.00;;;;;;5083004;28;20599;-77
2021/12/18 01:22:56;;;;;;;50.77;22.30;;;8.10;84.70;;;;;;5073853;28;20198;-77
2021/12/18 01:25:26;;;;;;;53.53;22.60;;;8.10;84.70;;;;;;5078208;28;20952;-77
2021/12/18 01:27:54;;;;;;;52.97;23.10;;;8.10;84.80;;;;;;5076430;28;20203;-77
2021/12/18 01:30:23;;;;;;;53.00;24.47;;;8.10;84.80;;;;;;5066454;28;20196;-77
2021/12/18 01:32:51;;;;;;;56.13;22.53;;;8.00;84.80;;;;;;5076988;28;20182;-78
2021/12/18 01:35:20;;;;;;;46.80;22.37;;;8.10;84.90;;;;;;5080931;28;20203;-77
2021/12/18 01:37:50;;;;;;;50.43;22.53;;;8.00;84.90;;;;;;5080502;28;20210;-77
2021/12/18 01:40:21;;;;;;;46.93;20.83;;;8.00;84.90;;;;;;5081992;28;20254;-77
2021/12/18 01:51:47;;;;;;;43.80;22.67;;;8.20;85.20;;;;;;5086855;28;20676;-77
2021/12/18 01:54:16;;;;;;;49.17;23.27;;;8.20;85.10;;;;;;5092727;28;20192;-77
2021/12/18 01:56:44;;;;;;;50.43;23.43;;;8.20;85.10;;;;;;5091634;28;20195;-76
2021/12/18 01:59:13;;;;;;;48.87;22.63;;;8.20;85.10;;;;;;5098188;28;20184;-76
2021/12/18 02:01:42;;;;;;;47.73;24.83;;;8.20;84.90;;;;;;5090016;28;20199;-77
2021/12/18 02:04:11;;;;;;;47.40;23.40;;;8.10;84.70;;;;;;5095392;28;20864;-76
2021/12/18 02:06:39;;;;;;;51.80;23.90;;;8.10;84.60;;;;;;5099532;28;20199;-76
2021/12/18 02:09:09;;;;;;;49.63;23.37;;;8.10;84.70;;;;;;5096066;28;20872;-77
2021/12/18 02:11:38;;;;;;;52.30;22.53;;;8.10;84.70;;;;;;5099017;28;20697;-77
2021/12/18 02:19:58;;;;;;;48.63;22.80;;;8.00;84.50;;;;;;5093372;28;20185;-76
2021/12/18 02:22:28;;;;;;;43.23;20.27;;;8.00;84.40;;;;;;5090088;28;20194;-76
2021/12/18 02:24:57;;;;;;;45.73;21.20;;;7.90;84.20;;;;;;5092532;27;20211;-77
2021/12/18 02:27:25;;;;;;;45.13;21.53;;;7.90;84.10;;;;;;5094349;28;20279;-77
2021/12/18 02:29:54;;;;;;;43.63;20.57;;;7.90;84.00;;;;;;5090916;28;20867;-76
2021/12/18 02:32:22;;;;;;;44.90;21.73;;;7.90;84.10;;;;;;5097877;28;20235;-77
2021/12/18 02:34:58;;;;;;;44.37;21.07;;;7.90;84.10;;;;;;5098928;28;20848;-77
2021/12/18 02:37:32;;;;;;;41.50;20.50;;;7.90;84.00;;;;;;5095060;28;20192;-76
2021/12/18 02:42:51;;;;;;;41.97;20.13;;;7.80;83.80;;;;;;5094442;28;20197;-76
2021/12/18 02:45:21;;;;;;;37.97;18.90;;;7.80;83.80;;;;;;5092929;28;20288;-77
2021/12/18 02:47:49;;;;;;;37.83;18.73;;;7.80;83.70;;;;;;5088449;28;20206;-77
2021/12/18 02:50:18;;;;;;;37.90;19.95;;;7.80;83.70;;;;;;5096259;28;20437;-76
2021/12/18 02:52:48;;;;;;;34.13;17.53;;;7.80;84.00;;;;;;5089791;28;20216;-77
2021/12/18 02:55:16;;;;;;;34.23;17.27;;;7.80;84.00;;;;;;5095352;28;20211;-76
2021/12/18 02:57:44;;;;;;;37.40;18.30;;;7.80;83.80;;;;;;5075279;28;20194;-77
2021/12/18 03:00:14;;;;;;;35.33;17.83;;;7.70;83.60;;;;;;5079728;28;20561;-77
2021/12/18 03:02:45;;;;;;;33.00;17.83;;;7.70;83.60;;;;;;5072671;28;20193;-76
2021/12/18 03:05:20;;;;;;;34.27;16.57;;;7.70;83.40;;;;;;5083664;28;20214;-77
2021/12/18 03:07:57;;;;;;;39.10;19.30;;;7.70;83.40;;;;;;5083401;28;20199;-76
2021/12/18 03:19:17;;;;;;;33.23;17.80;;;7.70;82.90;;;;;;5083489;28;20918;-76
2021/12/18 03:24:33;;;;;;;36.67;17.57;;;7.60;82.70;;;;;;5078320;28;20208;-77
2021/12/18 03:27:01;;;;;;;39.20;19.17;;;7.50;82.50;;;;;;5082601;28;20608;-76
2021/12/18 03:29:30;;;;;;;36.73;18.20;;;7.50;82.50;;;;;;5078987;28;20198;-77
2021/12/18 03:31:58;;;;;;;37.83;18.60;;;7.50;82.50;;;;;;5069905;28;20198;-77
2021/12/18 03:34:26;;;;;;;34.27;19.33;;;7.50;82.40;;;;;;5077097;28;20204;-76
2021/12/18 03:36:55;;;;;;;37.87;20.63;;;7.40;82.20;;;;;;5083197;28;20197;-77
2021/12/18 03:39:23;;;;;;;40.20;19.37;;;7.40;82.20;;;;;;5080519;28;20196;-77
2021/12/18 03:41:53;;;;;;;38.17;19.73;;;7.30;82.20;;;;;;5082516;28;20298;-77
2021/12/18 03:44:22;;;;;;;38.90;18.50;;;7.30;82.20;;;;;;5078616;28;20227;-76
2021/12/18 03:46:51;;;;;;;32.77;17.40;;;7.30;82.10;;;;;;5080940;28;20217;-77
2021/12/18 03:49:19;;;;;;;35.43;17.77;;;7.20;82.00;;;;;;5069744;28;21570;-77
2021/12/18 03:51:48;;;;;;;39.10;17.93;;;7.20;82.00;;;;;;5070351;28;20209;-76
2021/12/18 03:54:16;;;;;;;28.63;15.73;;;7.10;82.00;;;;;;5083199;28;20194;-76
2021/12/18 03:56:44;;;;;;;34.73;15.90;;;7.00;82.20;;;;;;5078120;28;20645;-76
2021/12/18 03:59:14;;;;;;;33.20;14.43;;;7.00;82.30;;;;;;5080558;28;20197;-77
2021/12/18 04:01:42;;;;;;;31.50;15.40;;;6.90;82.50;;;;;;5081823;28;20188;-76
2021/12/18 04:04:11;;;;;;;26.20;14.80;;;6.90;82.50;;;;;;5078035;28;20212;-77
2021/12/18 04:06:41;;;;;;;29.13;14.37;;;6.90;82.60;;;;;;5082346;28;20219;-76
2021/12/18 04:09:11;;;;;;;31.10;15.50;;;6.90;82.70;;;;;;5075890;28;20696;-77
2021/12/18 04:11:40;;;;;;;30.93;15.83;;;6.80;82.80;;;;;;5082420;28;20199;-77
2021/12/18 04:14:10;;;;;;;29.17;15.00;;;6.80;83.00;;;;;;5083268;28;20659;-77
2021/12/18 04:16:40;;;;;;;30.13;17.20;;;6.80;83.10;;;;;;5081851;28;20922;-76
2021/12/18 04:19:08;;;;;;;26.67;14.53;;;6.80;83.80;;;;;;5081296;28;20192;-76
2021/12/18 04:21:37;;;;;;;29.63;14.97;;;6.80;83.70;;;;;;5069819;28;20818;-76
2021/12/18 04:24:06;;;;;;;26.77;14.67;;;6.80;83.70;;;;;;5077913;28;20191;-76
2021/12/18 04:26:35;;;;;;;29.63;15.20;;;6.90;83.80;;;;;;5081314;28;20217;-76
2021/12/18 04:29:05;;;;;;;26.43;15.70;;;6.80;83.70;;;;;;5068408;28;20861;-77
2021/12/18 04:31:34;;;;;;;30.40;16.60;;;6.90;83.70;;;;;;5079774;28;20564;-77
2021/12/18 04:34:05;;;;;;;27.07;15.17;;;6.90;83.80;;;;;;5077713;28;20206;-76
2021/12/18 04:36:34;;;;;;;27.57;15.07;;;6.90;83.90;;;;;;5076193;28;20198;-77
2021/12/18 04:39:04;;;;;;;27.70;15.07;;;6.90;83.90;;;;;;5071265;28;20217;-77
2021/12/18 04:41:39;;;;;;;29.23;15.97;;;6.90;84.10;;;;;;5073440;28;20192;-77
2021/12/18 04:44:07;;;;;;;29.07;15.43;;;6.90;84.10;;;;;;5080932;28;20223;-77
2021/12/18 04:46:36;;;;;;;30.33;16.50;;;7.00;84.20;;;;;;5075444;28;20216;-77
2021/12/18 04:49:05;;;;;;;27.13;15.83;;;7.00;84.20;;;;;;5080771;28;20192;-76
2021/12/18 04:51:34;;;;;;;32.10;16.97;;;7.00;84.20;;;;;;5074345;28;20211;-77
2021/12/18 04:54:02;;;;;;;33.53;16.80;;;7.10;84.20;;;;;;5081342;28;20214;-77
2021/12/18 04:56:31;;;;;;;31.03;16.07;;;7.10;84.20;;;;;;5073837;28;20193;-78
2021/12/18 04:58:59;;;;;;;29.60;15.90;;;7.10;84.10;;;;;;5078183;28;20192;-77
2021/12/18 05:01:27;;;;;;;25.53;14.87;;;7.20;84.00;;;;;;5077440;28;20203;-77
2021/12/18 05:03:56;;;;;;;27.50;14.53;;;7.30;83.80;;;;;;5065180;28;20824;-77
2021/12/18 05:06:29;;;;;;;27.80;15.43;;;7.30;83.60;;;;;;5062314;28;20885;-76
2021/12/18 05:08:57;;;;;;;30.53;14.83;;;7.30;83.10;;;;;;5076622;28;20194;-77
2021/12/18 05:11:25;;;;;;;27.30;14.87;;;7.30;82.80;;;;;;5070831;28;20195;-77
2021/12/18 05:13:54;;;;;;;25.40;14.23;;;7.20;82.80;;;;;;5077766;28;20234;-77
2021/12/18 05:16:22;;;;;;;26.93;15.20;;;7.20;82.90;;;;;;5077915;28;20244;-77
2021/12/18 05:18:51;;;;;;;26.53;14.67;;;7.20;82.80;;;;;;5079882;28;20667;-77
2021/12/18 05:21:19;;;;;;;29.90;15.20;;;7.30;82.80;;;;;;5079779;28;20415;-77
2021/12/18 05:23:49;;;;;;;27.03;15.30;;;7.20;82.60;;;;;;5078973;28;20195;-77
2021/12/18 05:26:18;;;;;;;27.33;14.20;;;7.20;82.80;;;;;;5074943;28;20219;-76
2021/12/18 05:28:46;;;;;;;29.00;15.17;;;7.20;82.80;;;;;;5075956;28;20187;-75
2021/12/18 05:31:16;;;;;;;26.87;15.37;;;7.20;82.90;;;;;;5076968;28;20229;-77
2021/12/18 05:33:46;;;;;;;30.20;15.23;;;7.10;82.90;;;;;;5078465;28;20194;-77
2021/12/18 05:36:31;;;;;;;26.80;15.43;;;7.20;83.00;;;;;;5080561;28;20192;-76
2021/12/18 05:39:06;;;;;;;25.97;15.10;;;7.10;82.90;;;;;;5078704;28;20198;-76
2021/12/18 05:41:35;;;;;;;32.73;15.70;;;7.10;83.00;;;;;;5067104;28;20194;-77
2021/12/18 05:44:05;;;;;;;30.40;15.50;;;7.10;83.10;;;;;;5077710;28;20224;-77
2021/12/18 05:46:33;;;;;;;26.77;14.23;;;7.10;83.20;;;;;;5081519;28;20244;-77
2021/12/18 05:49:02;;;;;;;30.40;14.97;;;7.10;83.30;;;;;;5070972;28;20198;-77
2021/12/18 05:51:32;;;;;;;23.43;14.40;;;7.10;83.50;;;;;;5080008;28;20198;-76
2021/12/18 05:54:00;;;;;;;27.47;16.20;;;7.10;83.50;;;;;;5080232;28;20197;-77
2021/12/18 05:56:30;;;;;;;25.77;14.33;;;7.20;83.60;;;;;;5080517;28;20202;-77
2021/12/18 05:58:59;;;;;;;28.07;15.13;;;7.20;83.50;;;;;;5071585;28;20245;-77
2021/12/18 06:01:28;;;;;;;28.07;15.67;;;7.20;83.50;;;;;;5078336;28;20199;-77
2021/12/18 06:03:56;;;;;;;29.60;15.50;;;7.20;83.50;;;;;;5080511;28;20200;-77
2021/12/18 06:06:26;;;;;;;27.07;15.43;;;7.20;83.40;;;;;;5073782;28;20221;-77
2021/12/18 06:08:54;;;;;;;29.80;16.00;;;7.20;83.40;;;;;;5076074;28;20809;-77
2021/12/18 06:11:26;;;;;;;29.10;16.60;;;7.30;83.50;;;;;;5079810;28;20845;-76
2021/12/18 06:13:56;;;;;;;27.30;15.90;;;7.30;83.50;;;;;;5073912;28;20192;-76
2021/12/18 06:16:25;;;;;;;26.57;15.80;;;7.30;83.40;;;;;;5080198;28;20227;-77
2021/12/18 06:18:54;;;;;;;27.67;17.23;;;7.30;83.50;;;;;;5078677;28;20210;-77
2021/12/18 06:21:23;;;;;;;26.00;15.33;;;7.30;83.40;;;;;;5078902;28;20195;-76
2021/12/18 06:23:53;;;;;;;29.23;15.53;;;7.30;83.40;;;;;;5074708;28;20545;-76
2021/12/18 06:26:24;;;;;;;30.37;16.70;;;7.30;83.40;;;;;;5076340;28;20211;-77
2021/12/18 06:28:52;;;;;;;27.63;15.70;;;7.30;83.40;;;;;;5080645;28;20186;-78
2021/12/18 06:31:33;;;;;;;30.43;15.90;;;7.30;83.60;;;;;;5082652;28;20189;-77
2021/12/18 06:34:01;;;;;;;27.03;15.57;;;7.40;83.60;;;;;;5082532;28;20287;-76
2021/12/18 06:36:30;;;;;;;29.33;15.60;;;7.40;83.40;;;;;;5087236;28;20188;-77
2021/12/18 06:38:59;;;;;;;27.73;16.17;;;7.50;83.50;;;;;;5083643;28;20245;-77
2021/12/18 06:41:27;;;;;;;32.07;16.50;;;7.50;83.40;;;;;;5084541;28;20858;-77
2021/12/18 06:43:56;;;;;;;31.43;16.83;;;7.50;83.30;;;;;;5085382;28;20233;-76
2021/12/18 06:46:25;;;;;;;30.47;17.77;;;7.50;83.30;;;;;;5077107;28;20264;-76
2021/12/18 06:48:54;;;;;;;31.27;18.03;;;7.50;83.30;;;;;;5086808;28;20257;-75
2021/12/18 06:51:25;;;;;;;35.90;18.57;;;7.60;83.50;;;;;;5096975;28;20282;-77
2021/12/18 06:53:54;;;;;;;32.83;18.50;;;7.70;83.40;;;;;;5078431;28;20193;-77
2021/12/18 06:56:23;;;;;;;32.00;18.43;;;7.70;83.30;;;;;;5084727;28;20189;-77
2021/12/18 06:58:51;;;;;;;35.57;19.73;;;7.70;83.10;;;;;;5082570;28;20196;-78
2021/12/18 07:01:20;;;;;;;35.93;20.27;;;7.80;83.10;;;;;;5086517;28;20196;-77
2021/12/18 07:03:49;;;;;;;35.87;19.70;;;7.80;83.00;;;;;;5077417;28;20191;-76
2021/12/18 07:06:19;;;;;;;36.83;20.57;;;7.90;82.70;;;;;;5079692;28;20193;-77
2021/12/18 07:08:47;;;;;;;38.57;21.33;;;7.90;82.40;;;;;;5073480;28;20196;-79
2021/12/18 07:11:15;;;;;;;36.67;20.67;;;7.90;82.10;;;;;;5084665;28;20838;-76
2021/12/18 07:13:44;;;;;;;33.20;19.67;;;7.90;82.10;;;;;;5074061;28;20205;-76
2021/12/18 07:16:12;;;;;;;31.37;19.00;;;7.90;82.30;;;;;;5070669;28;20196;-77
2021/12/18 07:18:40;;;;;;;35.03;19.03;;;8.00;82.40;;;;;;5069207;28;20225;-77
2021/12/18 07:21:09;;;;;;;33.50;19.40;;;8.00;82.20;;;;;;5086142;28;20203;-77
2021/12/18 07:23:39;;;;;;;31.90;18.67;;;8.00;82.10;;;;;;5086647;28;20684;-76
2021/12/18 07:26:07;;;;;;;34.97;18.87;;;8.10;82.30;;;;;;5081332;28;20275;-77
2021/12/18 07:28:36;;;;;;;32.43;18.97;;;8.10;82.40;;;;;;5079152;28;20229;-77
2021/12/18 07:31:04;;;;;;;35.73;18.07;;;8.20;82.60;;;;;;5084441;28;20632;-77
2021/12/18 07:33:32;;;;;;;33.40;19.00;;;8.30;82.60;;;;;;5083043;28;20199;-77
2021/12/18 07:36:01;;;;;;;36.90;19.60;;;8.40;82.60;;;;;;5076103;28;20206;-77
2021/12/18 07:38:29;;;;;;;32.83;19.57;;;8.40;82.50;;;;;;5094234;28;20192;-77
2021/12/18 07:40:59;;;;;;;34.47;19.57;;;8.50;82.60;;;;;;5092929;27;20649;-77
2021/12/18 07:43:27;;;;;;;34.20;19.47;;;8.60;82.40;;;;;;5098203;28;20196;-77
2021/12/18 07:45:55;;;;;;;34.53;19.20;;;8.60;82.20;;;;;;5087289;28;20224;-77
2021/12/18 07:48:24;;;;;;;32.70;18.00;;;8.70;82.20;;;;;;5088210;28;20604;-77
2021/12/18 07:50:52;;;;;;;31.90;19.03;;;8.80;82.10;;;;;;5084230;28;20189;-77
2021/12/18 07:53:21;;;;;;;41.30;20.83;;;8.80;82.10;;;;;;5083314;28;20182;-78
2021/12/18 07:55:49;;;;;;;35.60;20.87;;;8.90;81.90;;;;;;5083045;28;20196;-77
2021/12/18 07:58:19;;;;;;;35.53;20.80;;;8.90;81.80;;;;;;5085658;28;20193;-78
2021/12/18 08:00:48;;;;;;;34.17;19.03;;;8.90;81.90;;;;;;5091630;28;20192;-80
2021/12/18 08:03:16;;;;;;;32.40;18.77;;;9.00;81.90;;;;;;5106346;28;20201;-79
2021/12/18 08:05:45;;;;;;;34.50;17.80;;;9.00;81.80;;;;;;5080521;28;20217;-79
2021/12/18 08:08:13;;;;;;;28.23;16.40;;;9.00;81.30;;;;;;5078897;28;20216;-77
2021/12/18 08:10:42;;;;;;;32.45;19.10;;;9.00;81.60;;;;;;5084114;28;20517;-78
2021/12/18 08:13:10;;;;;;;30.00;17.17;;;9.00;81.90;;;;;;5068561;28;20268;-78
2021/12/18 08:15:40;;;;;;;30.57;17.70;;;9.10;81.80;;;;;;5085333;28;20196;-79
2021/12/18 08:18:08;;;;;;;36.60;18.17;;;9.10;81.50;;;;;;5086016;28;20193;-77
2021/12/18 08:20:37;;;;;;;31.20;17.43;;;9.10;81.70;;;;;;5084929;28;20194;-77
2021/12/18 08:23:06;;;;;;;34.67;19.03;;;9.10;81.50;;;;;;5085402;28;20186;-77
2021/12/18 08:25:35;;;;;;;31.80;19.20;;;9.20;81.30;;;;;;5075092;28;20708;-77
2021/12/18 08:28:05;;;;;;;36.67;19.50;;;9.30;81.50;;;;;;5085501;28;20245;-77
2021/12/18 08:30:35;;;;;;;30.80;19.57;;;9.30;81.50;;;;;;5085786;28;20643;-77
2021/12/18 08:33:06;;;;;;;37.30;20.87;;;9.40;81.50;;;;;;5091444;28;20189;-78
2021/12/18 08:35:35;;;;;;;37.73;21.00;;;9.50;81.40;;;;;;5084517;28;20589;-77
2021/12/18 08:38:06;;;;;;;35.00;19.03;;;9.60;81.40;;;;;;5084296;28;20232;-79
2021/12/18 08:40:36;;;;;;;32.43;18.53;;;9.60;80.80;;;;;;5084742;28;20912;-78
2021/12/18 08:43:04;;;;;;;30.10;17.27;;;9.60;80.40;;;;;;5090750;28;20211;-77
2021/12/18 08:45:32;;;;;;;27.50;17.10;;;9.60;80.20;;;;;;5081482;28;20222;-77
2021/12/18 08:48:01;;;;;;;29.00;15.73;;;9.60;80.50;;;;;;5086260;28;20210;-77
2021/12/18 08:50:31;;;;;;;30.70;17.03;;;9.70;80.90;;;;;;5084663;28;20194;-77
2021/12/18 08:52:59;;;;;;;29.47;15.83;;;9.70;81.10;;;;;;5091181;28;20197;-78
2021/12/18 08:55:27;;;;;;;27.97;16.00;;;9.70;80.60;;;;;;5087099;28;20405;-77
2021/12/18 08:57:56;;;;;;;27.80;16.40;;;9.80;80.30;;;;;;5084287;28;20197;-77
2021/12/18 09:00:26;;;;;;;34.33;16.57;;;9.80;80.30;;;;;;5084706;28;20186;-77
2021/12/18 09:02:57;;;;;;;27.53;15.23;;;9.80;80.60;;;;;;5086576;28;20201;-76
2021/12/18 09:05:26;;;;;;;32.77;16.13;;;9.90;80.90;;;;;;5084853;28;20288;-77
2021/12/18 09:07:57;;;;;;;33.27;16.80;;;9.90;80.80;;;;;;5081946;28;20216;-77
2021/12/18 09:10:25;;;;;;;31.87;16.60;;;10.00;80.50;;;;;;5081573;28;20182;-77
2021/12/18 09:12:55;;;;;;;33.67;18.30;;;10.00;80.50;;;;;;5082804;28;20656;-77
2021/12/18 09:15:24;;;;;;;35.30;19.33;;;10.00;80.80;;;;;;5083888;28;20190;-77
2021/12/18 09:17:52;;;;;;;31.10;18.67;;;10.10;81.10;;;;;;5077838;28;20581;-77
2021/12/18 09:20:21;;;;;;;31.37;18.10;;;10.20;81.40;;;;;;5082383;28;20186;-77
2021/12/18 09:22:49;;;;;;;32.03;16.83;;;10.20;80.80;;;;;;5083681;28;20266;-78
2021/12/18 09:25:20;;;;;;;30.93;18.00;;;10.30;80.20;;;;;;5080570;28;20190;-78
2021/12/18 09:27:49;;;;;;;34.27;18.27;;;10.30;80.10;;;;;;5083517;28;20186;-78
2021/12/18 09:30:17;;;;;;;28.70;17.77;;;10.30;80.40;;;;;;5082391;28;20194;-78
2021/12/18 09:32:45;;;;;;;29.37;18.07;;;10.40;80.50;;;;;;5084677;28;20193;-78
2021/12/18 09:35:15;;;;;;;31.67;18.07;;;10.40;80.50;;;;;;5085421;28;20305;-79
2021/12/18 09:37:44;;;;;;;30.13;16.63;;;10.50;80.40;;;;;;5086577;28;20205;-77
2021/12/18 09:40:14;;;;;;;24.47;14.03;;;10.50;80.40;;;;;;5096039;28;20190;-78
2021/12/18 09:42:44;;;;;;;25.93;12.53;;;10.60;80.30;;;;;;5086737;28;20751;-78
2021/12/18 09:45:13;;;;;;;22.57;12.23;;;10.70;80.10;;;;;;5085174;28;20206;-77
2021/12/18 09:47:42;;;;;;;20.73;11.77;;;10.70;79.10;;;;;;5086502;28;20224;-78
2021/12/18 09:50:12;;;;;;;22.43;12.50;;;10.70;76.40;;;;;;5087583;28;20240;-78
2021/12/18 09:52:40;;;;;;;20.55;12.63;;;10.70;76.70;;;;;;5088012;28;20427;-77
2021/12/18 09:55:09;;;;;;;23.97;12.37;;;10.80;77.50;;;;;;5090540;28;20193;-77
2021/12/18 09:57:39;;;;;;;21.87;12.60;;;10.90;77.70;;;;;;5087605;28;20921;-77
2021/12/18 10:00:12;;;;;;;22.77;13.07;;;11.00;77.80;;;;;;5085612;28;20209;-77
2021/12/18 10:02:41;;;;;;;20.93;12.10;;;11.00;77.10;;;;;;5091283;28;20204;-77
2021/12/18 10:05:20;;;;;;;20.73;12.37;;;11.10;77.10;;;;;;5087096;28;20763;-77
2021/12/18 10:08:07;;;;;;;20.97;11.60;;;11.10;76.60;;;;;;5087385;28;20181;-78
2021/12/18 10:10:37;;;;;;;17.23;10.47;;;11.20;76.70;;;;;;5087798;28;20632;-76
2021/12/18 10:13:07;;;;;;;23.10;11.37;;;11.20;76.70;;;;;;5088966;28;20190;-77
2021/12/18 10:15:38;;;;;;;21.37;10.63;;;11.20;76.50;;;;;;5080950;28;20182;-78
2021/12/18 10:18:08;;;;;;;18.17;10.17;;;11.20;76.30;;;;;;5093150;28;20182;-77
2021/12/18 10:20:38;;;;;;;17.50;9.77;;;11.20;75.10;;;;;;5090111;28;20255;-78
2021/12/18 10:23:07;;;;;;;20.20;10.20;;;11.20;74.30;;;;;;5083073;28;20189;-77
2021/12/18 10:25:40;;;;;;;18.13;9.73;;;11.20;74.30;;;;;;5087086;28;20186;-77
2021/12/18 10:28:14;;;;;;;19.20;9.27;;;11.20;74.60;;;;;;5087675;28;20831;-75
2021/12/18 10:30:50;;;;;;;17.13;8.93;;;11.20;74.40;;;;;;5087662;28;20186;-75
2021/12/18 10:33:19;;;;;;;18.77;10.03;;;11.20;74.60;;;;;;5087708;28;20170;-77
2021/12/18 10:35:50;;;;;;;19.07;10.90;;;11.20;74.60;;;;;;5084227;28;20967;-75
2021/12/18 10:38:44;;;;;;;21.97;10.93;;;11.20;74.50;;;;;;5086092;28;20190;-75
2021/12/18 10:41:24;;;;;;;22.80;12.10;;;11.30;74.70;;;;;;5079695;28;20193;-75
2021/12/18 10:44:01;;;;;;;19.60;10.83;;;11.30;74.90;;;;;;5075743;28;20186;-75
2021/12/18 10:46:33;;;;;;;22.57;12.50;;;11.30;75.00;;;;;;5082750;28;20196;-75
2021/12/18 10:49:03;;;;;;;21.73;12.47;;;11.40;74.80;;;;;;5090945;28;20222;-76
2021/12/18 10:51:33;;;;;;;25.67;13.93;;;11.30;74.60;;;;;;5084713;28;20186;-76
2021/12/18 10:54:04;;;;;;;24.17;14.03;;;11.40;74.70;;;;;;5086659;28;20721;-74
2021/12/18 10:56:36;;;;;;;23.97;13.97;;;11.40;74.40;;;;;;5084839;28;20834;-75
2021/12/18 10:59:19;;;;;;;36.73;15.03;;;11.40;74.40;;;;;;5079106;28;20896;-75
2021/12/18 11:01:57;;;;;;;25.83;14.37;;;11.40;74.50;;;;;;5085210;28;20203;-77
2021/12/18 11:04:27;;;;;;;22.60;13.07;;;11.40;74.60;;;;;;5086695;28;20196;-75
2021/12/18 11:06:57;;;;;;;26.93;14.23;;;11.50;74.60;;;;;;5084175;28;20589;-75
2021/12/18 11:09:32;;;;;;;23.37;12.67;;;11.60;74.50;;;;;;5085579;28;20216;-75
2021/12/18 11:14:49;;;;;;;22.03;13.27;;;11.70;74.50;;;;;;5065580;28;20186;-75
2021/12/18 11:17:21;;;;;;;21.27;11.30;;;11.80;73.80;;;;;;5082888;28;20231;-76
2021/12/18 11:19:50;;;;;;;17.27;10.30;;;11.80;73.40;;;;;;5091011;28;20193;-76
2021/12/18 11:22:19;;;;;;;19.30;11.80;;;11.80;73.60;;;;;;5084394;28;20197;-76
2021/12/18 11:24:54;;;;;;;15.50;9.93;;;11.80;73.20;;;;;;5084469;28;20186;-75
2021/12/18 11:27:22;;;;;;;13.87;7.73;;;11.80;72.90;;;;;;5083681;28;20181;-76
2021/12/18 11:29:55;;;;;;;15.93;8.53;;;11.80;72.90;;;;;;5080831;28;20228;-75
2021/12/18 11:32:27;;;;;;;17.17;8.50;;;11.80;71.90;;;;;;5080899;28;20194;-76
2021/12/18 11:34:59;;;;;;;15.07;7.53;;;11.80;72.00;;;;;;5084414;28;20189;-76
2021/12/18 11:37:28;;;;;;;15.37;7.03;;;11.80;71.30;;;;;;5085226;28;20182;-75
2021/12/18 11:39:58;;;;;;;12.70;7.13;;;11.80;71.40;;;;;;5084543;28;20198;-75
2021/12/18 11:42:29;;;;;;;12.63;6.67;;;11.80;71.30;;;;;;5085093;28;20178;-75
2021/12/18 11:44:59;;;;;;;10.00;6.20;;;11.80;70.20;;;;;;5083779;28;20221;-76
2021/12/18 11:47:32;;;;;;;9.63;5.57;;;11.80;69.70;;;;;;5085558;28;20666;-75
2021/12/18 11:50:04;;;;;;;9.10;5.03;;;11.80;69.10;;;;;;5085081;28;20206;-76
2021/12/18 11:52:54;;;;;;;10.30;5.40;;;11.70;69.50;;;;;;5084527;28;20192;-76
2021/12/18 11:55:23;;;;;;;10.60;5.33;;;11.70;67.70;;;;;;5100853;28;20196;-76
2021/12/18 11:57:53;;;;;;;9.90;5.23;;;11.70;68.40;;;;;;5103361;28;20204;-76
2021/12/18 12:00:43;;;;;;;11.30;5.70;;;11.70;68.60;;;;;;5084545;28;20190;-76
2021/12/18 12:03:25;;;;;;;8.00;4.63;;;11.60;68.90;;;;;;5072308;28;20826;-75
2021/12/18 12:05:54;;;;;;;9.63;4.27;;;11.60;67.80;;;;;;5089919;28;20182;-75
2021/12/18 12:08:34;;;;;;;9.50;4.90;;;11.60;68.60;;;;;;5076412;28;20607;-75
2021/12/18 12:11:18;;;;;;;7.47;4.37;;;11.60;68.60;;;;;;5080295;28;20213;-75
2021/12/18 12:13:58;;;;;;;12.30;5.60;;;11.60;68.70;;;;;;5082873;28;20280;-75
2021/12/18 12:17:03;;;;;;;11.77;6.07;;;11.60;68.60;;;;;;5083885;28;20186;-76
2021/12/18 12:19:56;;;;;;;11.70;6.10;;;11.50;68.60;;;;;;5087007;28;20196;-76
2021/12/18 12:22:52;;;;;;;13.97;6.17;;;11.50;68.70;;;;;;5077675;28;20189;-75
2021/12/18 12:25:56;;;;;;;10.67;5.70;;;11.50;68.80;;;;;;5049334;28;20537;-76
2021/12/18 12:28:52;;;;;;;11.80;5.47;;;11.50;68.80;;;;;;5044648;28;20191;-76
2021/12/18 12:31:24;;;;;;;8.83;5.10;;;11.50;68.70;;;;;;5086581;28;20217;-76
2021/12/18 12:34:21;;;;;;;10.33;4.97;;;11.50;68.80;;;;;;5078566;28;20190;-75
2021/12/18 12:36:58;;;;;;;11.33;5.33;;;11.50;69.10;;;;;;5080370;28;20202;-76
2021/12/18 12:39:54;;;;;;;11.07;5.33;;;11.50;69.00;;;;;;5030114;28;20594;-76
2021/12/18 12:42:26;;;;;;;9.43;4.97;;;11.50;69.10;;;;;;5083683;28;20201;-76
2021/12/18 12:45:02;;;;;;;12.77;5.67;;;11.50;69.20;;;;;;5084101;28;20221;-75
2021/12/18 12:47:36;;;;;;;10.10;5.70;;;11.50;69.00;;;;;;5088629;28;20180;-75
2021/12/18 12:50:31;;;;;;;10.63;4.73;;;11.50;69.10;;;;;;5084312;28;20213;-75
2021/12/18 12:53:07;;;;;;;12.40;5.53;;;11.50;68.70;;;;;;5083502;28;20694;-76
2021/12/18 12:55:41;;;;;;;9.20;4.77;;;11.40;68.90;;;;;;5079339;28;20190;-76
2021/12/18 12:58:19;;;;;;;8.37;4.33;;;11.40;69.00;;;;;;5090439;28;20195;-76
2021/12/18 13:01:00;;;;;;;8.00;3.37;;;11.40;68.90;;;;;;5094722;28;20181;-75
2021/12/18 13:03:34;;;;;;;5.10;3.00;;;11.40;68.90;;;;;;5077953;28;20186;-76
2021/12/18 13:06:22;;;;;;;5.23;2.80;;;11.50;68.80;;;;;;5082803;28;20217;-76
2021/12/18 13:08:52;;;;;;;5.10;2.90;;;11.40;68.30;;;;;;5072569;28;20193;-76
2021/12/18 13:11:25;;;;;;;8.20;4.17;;;11.40;68.00;;;;;;5077701;28;20229;-76
2021/12/18 13:13:58;;;;;;;7.07;3.93;;;11.40;67.80;;;;;;5090895;28;20204;-76
2021/12/18 13:16:35;;;;;;;5.93;3.20;;;11.40;67.80;;;;;;5087584;28;20620;-76
2021/12/18 13:19:06;;;;;;;5.43;3.07;;;11.40;67.70;;;;;;5103321;28;20189;-76
2021/12/18 13:21:40;;;;;;;5.97;3.50;;;11.40;67.50;;;;;;5084488;28;20178;-76
2021/12/18 13:24:15;;;;;;;7.87;3.30;;;11.40;67.40;;;;;;5078391;28;20281;-76
2021/12/18 13:26:48;;;;;;;7.70;3.63;;;11.40;67.30;;;;;;5077315;28;20205;-77
2021/12/18 13:29:20;;;;;;;9.00;3.93;;;11.40;67.40;;;;;;5082979;28;20196;-76
2021/12/18 13:31:56;;;;;;;6.83;3.73;;;11.40;67.40;;;;;;5058352;28;20229;-75
2021/12/18 13:34:31;;;;;;;8.57;3.97;;;11.40;67.50;;;;;;5082639;28;20196;-76